Time;durP1;ratioP1;P1;durP2;ratioP2;P2;SDS_P1;SDS_P2;PMS_P1;PMS_P2;Temp;Humidity;BMP_temperature;BMP_pressure;BME280_temperature;BME280_humidity;BME280_pressure;Samples;Min_cycle;Max_cycle;Signal;HPM_P1;HPM_P2
2023/07/10 00:02:24;;;;;;;13.90;8.13;;;19.70;99.90;;;;;;5050522;28;20225;-72
2023/07/10 00:04:49;;;;;;;19.05;9.73;;;19.70;99.90;;;;;;5049827;28;20049;-72
2023/07/10 00:07:15;;;;;;;17.55;9.05;;;19.70;99.90;;;;;;5049361;28;20389;-72
2023/07/10 00:09:40;;;;;;;15.70;10.23;;;19.70;99.90;;;;;;5049387;28;20036;-72
2023/07/10 00:12:13;;;;;;;15.10;10.07;;;19.70;99.90;;;;;;5045662;28;20100;-72
2023/07/10 00:14:38;;;;;;;18.70;10.52;;;19.70;99.90;;;;;;5050369;28;20025;-72
2023/07/10 00:17:05;;;;;;;15.48;10.27;;;19.60;99.90;;;;;;5049888;28;20390;-72
2023/07/10 00:19:31;;;;;;;19.67;11.65;;;19.70;99.90;;;;;;5049574;28;20063;-72
2023/07/10 00:21:56;;;;;;;16.23;11.40;;;19.60;99.90;;;;;;5050007;28;20061;-72
2023/07/10 00:24:22;;;;;;;18.75;10.52;;;19.60;99.90;;;;;;5048192;28;20084;-72
2023/07/10 00:26:47;;;;;;;16.83;11.35;;;19.60;99.90;;;;;;5048148;28;20450;-72
2023/07/10 00:29:22;;;;;;;20.35;10.73;;;19.60;99.90;;;;;;5049898;28;20021;-72
2023/07/10 00:31:47;;;;;;;17.70;10.20;;;19.60;99.90;;;;;;5047331;28;20029;-72
2023/07/10 00:34:17;;;;;;;19.58;10.05;;;19.60;99.90;;;;;;5049798;28;20025;-72
2023/07/10 00:36:47;;;;;;;18.63;11.35;;;19.60;99.90;;;;;;5049787;28;20025;-72
2023/07/10 00:39:28;;;;;;;21.60;11.82;;;19.60;99.90;;;;;;5047309;28;20029;-72
2023/07/10 00:42:20;;;;;;;19.52;11.02;;;19.60;99.90;;;;;;5047216;28;20755;-72
2023/07/10 00:44:55;;;;;;;15.57;10.32;;;19.60;99.90;;;;;;5031004;28;20044;-72
2023/07/10 00:47:26;;;;;;;18.88;10.50;;;19.50;99.90;;;;;;5056239;28;20044;-72
2023/07/10 00:50:27;;;;;;;17.30;10.40;;;19.50;99.90;;;;;;5068997;28;20448;-72
2023/07/10 00:52:53;;;;;;;18.13;11.82;;;19.50;99.90;;;;;;5060432;28;20104;-72
2023/07/10 00:55:36;;;;;;;20.50;10.98;;;19.40;99.90;;;;;;5068149;28;20036;-72
2023/07/10 00:58:19;;;;;;;18.70;11.98;;;19.40;99.90;;;;;;5063334;28;20043;-72
2023/07/10 01:01:01;;;;;;;18.65;12.20;;;19.40;99.90;;;;;;5066484;28;20389;-72
2023/07/10 01:03:27;;;;;;;19.20;12.30;;;19.30;99.90;;;;;;5050588;28;20635;-72
2023/07/10 01:05:54;;;;;;;16.65;13.32;;;19.30;99.90;;;;;;5070982;28;20031;-72
2023/07/10 01:08:20;;;;;;;18.38;13.25;;;19.30;99.90;;;;;;5074177;28;20358;-72
2023/07/10 01:10:45;;;;;;;19.70;12.93;;;19.30;99.90;;;;;;5072752;28;20082;-72
2023/07/10 01:13:11;;;;;;;21.25;12.73;;;19.20;99.90;;;;;;5073985;28;20113;-72
2023/07/10 01:15:36;;;;;;;21.73;13.40;;;19.20;99.90;;;;;;5072871;28;20430;-72
2023/07/10 01:18:02;;;;;;;22.63;14.13;;;19.10;99.90;;;;;;5072082;28;20116;-72
2023/07/10 01:20:32;;;;;;;20.40;13.52;;;19.10;99.90;;;;;;5072535;28;20111;-72
2023/07/10 01:22:59;;;;;;;20.83;13.13;;;19.00;99.90;;;;;;5069795;28;20115;-72
2023/07/10 01:25:26;;;;;;;18.55;14.32;;;19.00;99.90;;;;;;5062424;28;20398;-72
2023/07/10 01:27:51;;;;;;;21.08;14.43;;;19.00;99.90;;;;;;5072645;28;20100;-72
2023/07/10 01:30:27;;;;;;;22.63;13.63;;;19.00;99.90;;;;;;5072087;28;20158;-72
2023/07/10 01:32:54;;;;;;;22.10;14.25;;;19.10;99.90;;;;;;5072892;28;20027;-72
2023/07/10 01:35:21;;;;;;;19.63;14.27;;;19.00;99.90;;;;;;5072825;28;20036;-72
2023/07/10 01:37:46;;;;;;;23.27;13.38;;;19.00;99.90;;;;;;5053691;28;20490;-72
2023/07/10 01:40:19;;;;;;;18.88;13.63;;;19.00;99.90;;;;;;5069493;28;20032;-72
2023/07/10 01:42:45;;;;;;;24.95;14.65;;;19.00;99.90;;;;;;5069198;28;20021;-71
2023/07/10 01:45:13;;;;;;;23.02;14.32;;;19.00;99.90;;;;;;5072054;28;20481;-72
2023/07/10 01:47:39;;;;;;;20.92;14.40;;;19.00;99.90;;;;;;5058524;28;20618;-72
2023/07/10 01:50:06;;;;;;;20.40;12.95;;;18.90;99.90;;;;;;5051661;28;20032;-72
2023/07/10 01:52:32;;;;;;;22.02;13.93;;;18.90;99.90;;;;;;5049220;28;20510;-72
2023/07/10 01:54:57;;;;;;;18.10;12.93;;;18.90;99.90;;;;;;5050764;28;20060;-72
2023/07/10 01:57:23;;;;;;;26.33;15.00;;;18.80;99.90;;;;;;5051612;28;20086;-72
2023/07/10 01:59:50;;;;;;;19.55;14.20;;;18.80;99.90;;;;;;5047452;28;20029;-72
2023/07/10 02:02:15;;;;;;;22.17;14.13;;;18.80;99.90;;;;;;5052671;28;20491;-72
2023/07/10 02:04:41;;;;;;;24.95;15.13;;;18.70;99.90;;;;;;5051195;28;20084;-72
2023/07/10 02:07:06;;;;;;;16.70;13.02;;;18.70;99.90;;;;;;5049995;28;20505;-72
2023/07/10 02:09:32;;;;;;;19.83;14.57;;;18.70;99.90;;;;;;5047068;28;20078;-71
2023/07/10 02:11:58;;;;;;;19.52;14.38;;;18.70;99.90;;;;;;5049254;28;20075;-72
2023/07/10 02:14:24;;;;;;;21.98;15.00;;;18.60;99.90;;;;;;5051073;28;20167;-72
2023/07/10 02:16:50;;;;;;;21.15;13.50;;;18.60;99.90;;;;;;5047254;28;20029;-72
2023/07/10 02:19:17;;;;;;;20.85;15.07;;;18.60;99.90;;;;;;5049092;28;20494;-72
2023/07/10 02:21:43;;;;;;;21.85;14.05;;;18.60;99.90;;;;;;5046267;28;20091;-72
2023/07/10 02:24:09;;;;;;;25.42;14.75;;;18.60;99.90;;;;;;5049853;28;20425;-71
2023/07/10 02:26:34;;;;;;;19.70;14.05;;;18.60;99.90;;;;;;5048549;28;20040;-72
2023/07/10 02:29:00;;;;;;;21.73;15.25;;;18.50;99.90;;;;;;5051946;28;20397;-72
2023/07/10 02:31:27;;;;;;;20.02;14.68;;;18.50;99.90;;;;;;5051231;28;20025;-72
2023/07/10 02:33:52;;;;;;;19.73;15.25;;;18.50;99.90;;;;;;5049232;28;20474;-71
2023/07/10 02:36:19;;;;;;;19.60;14.32;;;18.50;99.90;;;;;;5051159;28;20025;-72
2023/07/10 02:38:45;;;;;;;17.75;14.23;;;18.40;99.90;;;;;;5052055;28;20021;-72
2023/07/10 02:41:10;;;;;;;21.52;14.05;;;18.40;99.90;;;;;;5048585;28;20497;-72
2023/07/10 02:43:36;;;;;;;23.00;14.27;;;18.40;99.90;;;;;;5049024;28;20108;-72
2023/07/10 02:46:01;;;;;;;21.50;14.32;;;18.40;99.90;;;;;;5050531;28;20104;-72
2023/07/10 02:48:27;;;;;;;23.60;13.93;;;18.50;99.90;;;;;;5045742;28;20621;-72
2023/07/10 02:50:52;;;;;;;21.33;12.50;;;18.40;99.90;;;;;;5047955;28;20490;-72
2023/07/10 02:53:18;;;;;;;22.20;12.07;;;18.40;99.90;;;;;;5051646;28;20107;-72
2023/07/10 02:55:43;;;;;;;14.77;11.77;;;18.40;99.90;;;;;;5049775;28;20182;-72
2023/07/10 02:58:09;;;;;;;23.58;12.18;;;18.40;99.90;;;;;;5051562;28;20028;-72
2023/07/10 03:00:36;;;;;;;21.55;11.85;;;18.40;99.90;;;;;;5047883;28;20040;-72
2023/07/10 03:03:02;;;;;;;19.90;11.82;;;18.40;99.90;;;;;;5050343;28;20056;-72
2023/07/10 03:05:27;;;;;;;20.20;11.38;;;18.40;99.90;;;;;;5050951;28;20060;-72
2023/07/10 03:07:53;;;;;;;21.60;11.63;;;18.30;99.90;;;;;;5048803;28;20029;-72
2023/07/10 03:10:19;;;;;;;19.23;12.20;;;18.30;99.90;;;;;;5049230;28;20033;-71
2023/07/10 03:12:45;;;;;;;23.77;11.50;;;18.20;99.90;;;;;;5044880;28;20032;-71
2023/07/10 03:15:11;;;;;;;18.27;11.23;;;18.30;99.90;;;;;;5050587;28;20037;-71
2023/07/10 03:17:37;;;;;;;22.55;12.00;;;18.30;99.90;;;;;;5051442;28;20033;-71
2023/07/10 03:20:03;;;;;;;17.60;11.35;;;18.20;99.90;;;;;;5047774;28;20035;-71
2023/07/10 03:22:29;;;;;;;17.80;11.90;;;18.30;99.90;;;;;;5032486;28;20037;-71
2023/07/10 03:24:55;;;;;;;15.88;10.52;;;18.20;99.90;;;;;;5047979;28;20111;-71
2023/07/10 03:27:22;;;;;;;19.02;9.90;;;18.20;99.90;;;;;;5049593;28;20025;-71
2023/07/10 03:29:47;;;;;;;14.57;9.43;;;18.20;99.90;;;;;;5050286;28;20029;-71
2023/07/10 03:32:13;;;;;;;15.35;10.00;;;18.20;99.90;;;;;;5047983;28;20025;-71
2023/07/10 03:34:38;;;;;;;16.15;9.07;;;18.20;99.90;;;;;;5051048;28;20044;-71
2023/07/10 03:37:05;;;;;;;15.35;10.07;;;18.20;99.90;;;;;;5049893;28;20037;-71
2023/07/10 03:39:31;;;;;;;12.88;8.82;;;18.20;99.90;;;;;;5049126;28;20036;-71
2023/07/10 03:41:57;;;;;;;16.20;9.23;;;18.10;99.90;;;;;;5027181;28;20025;-71
2023/07/10 03:44:22;;;;;;;17.38;9.15;;;18.10;99.90;;;;;;5048246;28;20067;-71
2023/07/10 03:46:48;;;;;;;16.40;8.88;;;18.10;99.90;;;;;;5050569;28;20025;-71
2023/07/10 03:49:13;;;;;;;9.73;7.43;;;18.10;99.90;;;;;;5048027;28;20068;-71
2023/07/10 03:51:39;;;;;;;11.70;7.30;;;18.10;99.90;;;;;;5048568;28;20414;-71
2023/07/10 03:54:05;;;;;;;13.77;7.38;;;18.00;99.90;;;;;;5051014;28;20037;-71
2023/07/10 03:56:31;;;;;;;12.35;7.32;;;18.00;99.90;;;;;;5049611;28;20549;-71
2023/07/10 03:58:57;;;;;;;14.57;7.43;;;17.90;99.90;;;;;;5049065;28;20033;-71
2023/07/10 04:01:23;;;;;;;12.18;6.88;;;17.90;99.90;;;;;;5046894;28;20032;-71
2023/07/10 04:03:48;;;;;;;11.80;6.35;;;17.90;99.90;;;;;;5048266;28;20391;-71
2023/07/10 04:06:15;;;;;;;10.07;6.03;;;17.80;99.90;;;;;;5046746;28;20033;-71
2023/07/10 04:08:42;;;;;;;11.70;5.97;;;17.80;99.90;;;;;;5049673;28;20032;-71
2023/07/10 04:11:11;;;;;;;11.43;5.20;;;17.80;99.90;;;;;;5047211;28;20040;-71
2023/07/10 04:13:37;;;;;;;9.77;6.32;;;17.80;99.90;;;;;;5049566;28;20364;-71
2023/07/10 04:16:10;;;;;;;9.15;5.05;;;17.70;99.90;;;;;;5047736;28;20032;-71
2023/07/10 04:18:37;;;;;;;17.15;4.63;;;17.70;99.90;;;;;;5049528;28;20025;-71
2023/07/10 04:21:07;;;;;;;9.95;4.35;;;17.70;99.90;;;;;;5045541;28;20395;-71
2023/07/10 04:23:32;;;;;;;14.10;5.22;;;17.70;99.90;;;;;;5048376;28;20033;-71
2023/07/10 04:25:58;;;;;;;10.73;5.20;;;17.70;99.90;;;;;;5048910;28;20051;-71
2023/07/10 04:28:24;;;;;;;11.07;4.05;;;17.70;99.90;;;;;;5048379;28;20040;-71
2023/07/10 04:30:51;;;;;;;9.38;4.60;;;17.70;99.90;;;;;;5047249;28;20092;-71
2023/07/10 04:33:18;;;;;;;8.52;4.50;;;17.70;99.90;;;;;;5049993;28;20051;-71
2023/07/10 04:35:44;;;;;;;11.32;4.90;;;17.70;99.90;;;;;;5049626;28;20047;-71
2023/07/10 04:38:10;;;;;;;12.00;4.15;;;17.70;99.90;;;;;;5046453;28;20025;-71
2023/07/10 04:40:35;;;;;;;10.43;4.45;;;17.60;99.90;;;;;;5035326;28;20055;-71
2023/07/10 04:43:04;;;;;;;8.85;4.03;;;17.60;99.90;;;;;;5044605;28;20028;-71
2023/07/10 04:45:29;;;;;;;9.27;3.88;;;17.60;99.90;;;;;;5053726;28;20028;-71
2023/07/10 04:47:55;;;;;;;9.40;4.80;;;17.60;99.90;;;;;;5048518;28;20521;-71
2023/07/10 04:50:21;;;;;;;9.85;4.50;;;17.60;99.90;;;;;;5053472;28;20033;-71
2023/07/10 04:52:47;;;;;;;6.75;4.22;;;17.60;99.90;;;;;;5050973;28;20079;-71
2023/07/10 04:55:12;;;;;;;11.05;4.95;;;17.60;99.90;;;;;;5048730;28;20060;-71
2023/07/10 04:57:38;;;;;;;9.43;4.15;;;17.70;99.90;;;;;;5054721;28;20490;-71
2023/07/10 05:00:05;;;;;;;6.53;3.92;;;17.80;99.90;;;;;;5053900;28;20029;-71
2023/07/10 05:02:30;;;;;;;6.05;3.80;;;17.90;99.90;;;;;;5053046;28;20104;-71
2023/07/10 05:04:56;;;;;;;5.90;2.78;;;18.10;99.90;;;;;;5046666;28;20148;-71
2023/07/10 05:07:21;;;;;;;5.22;2.55;;;18.40;99.90;;;;;;5053665;28;20506;-71
2023/07/10 05:09:47;;;;;;;7.72;3.50;;;18.80;99.90;;;;;;5049972;28;20390;-71
2023/07/10 05:12:13;;;;;;;5.63;2.95;;;19.30;99.90;;;;;;5051524;28;20474;-71
2023/07/10 05:14:38;;;;;;;5.03;1.92;;;19.70;99.90;;;;;;5048330;28;20037;-71
2023/07/10 05:17:04;;;;;;;7.18;2.55;;;20.10;99.90;;;;;;5049638;28;20033;-71
2023/07/10 05:19:32;;;;;;;7.32;2.63;;;20.40;99.90;;;;;;5046685;28;20041;-71
2023/07/10 05:21:59;;;;;;;4.97;2.97;;;20.50;99.90;;;;;;5053143;28;20382;-71
2023/07/10 05:24:24;;;;;;;6.80;2.90;;;20.40;99.90;;;;;;5052672;28;20040;-71
2023/07/10 05:26:50;;;;;;;5.90;2.75;;;20.30;99.90;;;;;;5050821;28;20029;-71
2023/07/10 05:29:15;;;;;;;5.18;2.40;;;20.10;99.90;;;;;;5045133;28;20522;-71
2023/07/10 05:31:41;;;;;;;5.97;2.78;;;19.90;99.90;;;;;;5050684;28;20037;-71
2023/07/10 05:34:06;;;;;;;7.43;3.00;;;19.80;99.90;;;;;;5064682;28;20082;-71
2023/07/10 05:36:32;;;;;;;6.07;2.90;;;19.70;99.90;;;;;;5051653;28;20040;-71
2023/07/10 05:38:57;;;;;;;5.78;2.78;;;19.60;99.90;;;;;;5046207;28;20096;-71
2023/07/10 05:41:23;;;;;;;7.57;2.95;;;19.60;99.90;;;;;;5046055;28;20057;-71
2023/07/10 05:43:49;;;;;;;10.13;3.28;;;19.60;99.90;;;;;;5039823;28;20048;-71
2023/07/10 05:46:15;;;;;;;7.50;3.33;;;19.60;99.90;;;;;;5049711;28;20478;-71
2023/07/10 05:48:40;;;;;;;7.28;3.13;;;19.60;99.90;;;;;;5079612;28;20040;-71
2023/07/10 05:51:06;;;;;;;6.75;3.70;;;19.80;99.90;;;;;;5070410;28;20028;-71
2023/07/10 05:53:33;;;;;;;7.88;3.22;;;19.90;99.90;;;;;;5066226;28;20099;-71
2023/07/10 05:56:00;;;;;;;8.20;3.90;;;20.00;99.90;;;;;;5070052;28;20036;-71
2023/07/10 05:58:27;;;;;;;8.32;3.40;;;20.10;99.90;;;;;;5067650;28;20031;-71
2023/07/10 06:00:59;;;;;;;9.50;4.15;;;20.00;99.90;;;;;;5064265;28;20028;-70
2023/07/10 06:03:25;;;;;;;9.85;3.83;;;19.90;99.90;;;;;;5070563;28;20486;-71
2023/07/10 06:06:01;;;;;;;7.13;4.15;;;20.00;99.90;;;;;;5072362;28;20032;-71
2023/07/10 06:08:28;;;;;;;8.88;3.67;;;20.10;99.90;;;;;;5071325;28;20060;-71
2023/07/10 06:10:54;;;;;;;8.43;3.90;;;20.10;99.90;;;;;;5051341;28;20498;-71
2023/07/10 06:13:20;;;;;;;6.05;3.25;;;20.10;99.90;;;;;;5071270;28;20115;-71
2023/07/10 06:15:48;;;;;;;9.07;3.55;;;20.20;99.90;;;;;;5070972;28;20078;-71
2023/07/10 06:18:15;;;;;;;13.32;3.60;;;20.20;99.90;;;;;;5071315;28;20096;-71
2023/07/10 06:20:41;;;;;;;8.50;2.72;;;20.30;99.90;;;;;;5070400;28;20531;-70
2023/07/10 06:23:06;;;;;;;6.93;2.88;;;20.40;99.90;;;;;;5071706;28;20377;-70
2023/07/10 06:25:32;;;;;;;8.10;3.20;;;20.40;99.90;;;;;;5069237;28;20103;-71
2023/07/10 06:27:58;;;;;;;7.80;2.47;;;20.30;99.90;;;;;;5057468;28;20035;-71
2023/07/10 06:30:23;;;;;;;7.15;2.53;;;20.40;99.90;;;;;;5067732;28;20493;-71
2023/07/10 06:32:50;;;;;;;6.50;2.58;;;20.50;99.90;;;;;;5071398;28;20115;-72
2023/07/10 06:35:15;;;;;;;9.40;3.50;;;20.50;99.90;;;;;;5072107;28;20032;-71
2023/07/10 06:37:41;;;;;;;9.90;2.83;;;20.60;99.90;;;;;;5083961;28;20077;-71
2023/07/10 06:40:15;;;;;;;6.82;2.38;;;20.60;99.90;;;;;;5070280;28;20048;-70
2023/07/10 06:42:42;;;;;;;7.47;2.03;;;20.70;99.90;;;;;;5070551;28;20023;-71
2023/07/10 06:45:09;;;;;;;8.27;2.47;;;20.80;99.90;;;;;;5069610;28;20028;-71
2023/07/10 06:47:40;;;;;;;7.75;2.10;;;20.90;99.90;;;;;;5057420;28;20098;-71
2023/07/10 06:50:07;;;;;;;6.10;2.22;;;20.90;99.90;;;;;;5029933;28;20033;-72
2023/07/10 06:52:33;;;;;;;7.68;2.30;;;21.00;99.90;;;;;;5038948;28;20021;-71
2023/07/10 06:54:59;;;;;;;7.55;2.30;;;21.10;99.90;;;;;;5051593;28;20037;-71
2023/07/10 06:57:24;;;;;;;7.28;2.50;;;21.10;99.90;;;;;;5052418;28;20036;-71
2023/07/10 06:59:50;;;;;;;8.27;2.28;;;21.20;99.90;;;;;;5047627;28;20102;-71
2023/07/10 07:02:15;;;;;;;8.73;2.30;;;21.10;99.90;;;;;;5051662;28;20470;-71
2023/07/10 07:04:41;;;;;;;4.78;2.30;;;21.20;99.90;;;;;;5049732;28;20335;-71
2023/07/10 07:07:10;;;;;;;4.18;1.50;;;21.30;99.90;;;;;;5038898;28;20126;-72
2023/07/10 07:09:38;;;;;;;8.45;1.90;;;21.20;99.90;;;;;;5050008;28;20022;-71
2023/07/10 07:12:04;;;;;;;6.45;1.33;;;21.30;99.90;;;;;;5045444;28;20037;-71
2023/07/10 07:14:31;;;;;;;6.57;1.10;;;21.30;99.90;;;;;;5047961;28;20036;-72
2023/07/10 07:16:56;;;;;;;5.43;1.70;;;21.30;99.90;;;;;;5039741;28;20025;-71
2023/07/10 07:19:22;;;;;;;8.90;1.40;;;21.30;99.90;;;;;;5036407;28;20414;-70
2023/07/10 07:24:22;;;;;;;4.78;1.02;;;21.30;99.90;;;;;;5033580;23;20061;-69
2023/07/10 07:26:48;;;;;;;5.90;1.05;;;21.40;99.90;;;;;;5012163;28;20044;-72
2023/07/10 07:29:31;;;;;;;4.25;0.70;;;21.40;99.90;;;;;;5032325;28;20049;-72
2023/07/10 07:31:56;;;;;;;7.55;1.10;;;21.50;99.90;;;;;;5026961;28;20052;-70
2023/07/10 07:34:22;;;;;;;7.82;0.90;;;21.60;99.90;;;;;;5030155;28;20471;-70
2023/07/10 07:36:50;;;;;;;4.05;0.85;;;21.60;99.90;;;;;;5030867;28;20032;-70
2023/07/10 07:39:27;;;;;;;4.05;0.95;;;21.70;99.90;;;;;;5031722;28;20049;-71
2023/07/10 07:41:53;;;;;;;5.68;0.90;;;21.60;99.90;;;;;;5047258;28;20053;-70
2023/07/10 07:44:19;;;;;;;4.72;0.70;;;21.70;99.90;;;;;;5030598;28;20037;-70
2023/07/10 07:46:44;;;;;;;7.70;1.20;;;21.70;99.90;;;;;;5031824;28;20033;-70
2023/07/10 07:49:10;;;;;;;5.00;0.85;;;21.70;99.90;;;;;;5031161;28;20029;-70
2023/07/10 07:51:37;;;;;;;5.90;1.20;;;21.80;99.90;;;;;;5030124;28;20044;-70
2023/07/10 07:54:13;;;;;;;6.53;1.15;;;21.80;99.90;;;;;;5031253;28;20107;-70
2023/07/10 07:56:39;;;;;;;6.45;0.98;;;21.80;99.90;;;;;;5031102;28;20068;-71
2023/07/10 07:59:06;;;;;;;7.85;1.30;;;21.90;99.90;;;;;;5030480;28;20063;-72
2023/07/10 08:01:33;;;;;;;8.45;1.23;;;21.90;99.90;;;;;;5030883;28;20025;-72
2023/07/10 08:03:59;;;;;;;5.93;1.10;;;21.90;99.90;;;;;;4997402;28;20037;-71
2023/07/10 08:06:30;;;;;;;8.15;1.30;;;21.90;99.90;;;;;;5034536;28;20033;-71
2023/07/10 08:08:56;;;;;;;6.70;1.13;;;22.00;99.90;;;;;;5019675;28;20037;-70
2023/07/10 08:11:25;;;;;;;7.93;1.70;;;22.10;99.90;;;;;;5030106;28;20029;-71
2023/07/10 08:13:51;;;;;;;5.00;1.15;;;22.20;99.90;;;;;;5011470;28;20037;-71
2023/07/10 08:16:21;;;;;;;6.10;1.33;;;22.30;99.90;;;;;;5018131;28;20121;-72
2023/07/10 08:18:52;;;;;;;5.95;1.00;;;22.40;99.90;;;;;;5015990;28;20571;-71
2023/07/10 08:21:19;;;;;;;7.45;1.15;;;22.50;99.90;;;;;;5015012;28;20388;-71
2023/07/10 08:23:45;;;;;;;4.95;0.82;;;22.60;99.90;;;;;;5030314;28;20037;-72
2023/07/10 08:26:16;;;;;;;7.88;0.98;;;22.70;99.90;;;;;;5023104;28;20029;-72
2023/07/10 08:28:42;;;;;;;8.23;1.25;;;22.80;99.90;;;;;;5029436;28;20081;-72
2023/07/10 08:31:08;;;;;;;8.05;0.90;;;22.70;99.90;;;;;;5030153;28;20076;-72
2023/07/10 08:33:36;;;;;;;8.23;1.25;;;22.60;99.90;;;;;;5031021;28;20021;-72
2023/07/10 08:36:05;;;;;;;5.57;0.85;;;22.40;99.90;;;;;;5012519;28;20041;-72
2023/07/10 08:38:35;;;;;;;9.45;1.35;;;22.50;99.90;;;;;;5029220;28;20499;-72
2023/07/10 08:41:09;;;;;;;9.18;1.45;;;22.70;99.90;;;;;;5001138;28;20059;-71
2023/07/10 08:43:38;;;;;;;7.78;0.98;;;22.80;99.90;;;;;;5029324;28;20033;-71
2023/07/10 08:46:10;;;;;;;4.88;0.60;;;22.80;99.90;;;;;;5009393;28;20383;-73
2023/07/10 08:49:03;;;;;;;6.95;0.80;;;23.00;99.90;;;;;;5023945;28;20502;-72
2023/07/10 08:51:34;;;;;;;7.32;0.60;;;23.10;99.90;;;;;;5029615;28;20042;-72
2023/07/10 08:54:26;;;;;;;;;;;;;;;;;;;;;
2023/07/10 08:57:54;;;;;;;4.75;0.80;;;23.20;99.90;;;;;;5030368;23;20048;-72
2023/07/10 09:00:28;;;;;;;3.80;0.47;;;23.20;99.90;;;;;;5021853;28;20513;-73
2023/07/10 09:03:36;;;;;;;5.30;1.02;;;23.10;99.90;;;;;;5011094;28;20029;-72
2023/07/10 09:06:05;;;;;;;6.30;0.70;;;23.20;99.90;;;;;;5020666;28;20502;-73
2023/07/10 09:08:35;;;;;;;4.55;0.98;;;23.30;99.90;;;;;;5037773;28;20426;-72
2023/07/10 09:11:04;;;;;;;4.73;1.10;;;23.40;99.90;;;;;;5044005;28;20036;-72
2023/07/10 09:13:39;;;;;;;4.10;0.70;;;23.40;99.90;;;;;;5009324;28;20688;-72
2023/07/10 09:16:16;;;;;;;3.28;0.50;;;23.40;99.90;;;;;;5041036;28;20057;-72
2023/07/10 09:19:30;;;;;;;4.60;0.68;;;23.50;99.90;;;;;;5052889;28;20041;-72
2023/07/10 09:21:56;;;;;;;6.63;0.88;;;23.50;99.90;;;;;;5042759;28;20371;-72
2023/07/10 09:24:23;;;;;;;4.70;0.77;;;23.60;99.90;;;;;;5029020;28;20032;-72
2023/07/10 09:26:50;;;;;;;4.25;0.70;;;23.70;99.90;;;;;;5053358;28;20095;-72
2023/07/10 09:29:37;;;;;;;3.97;0.77;;;23.70;99.90;;;;;;5055083;28;20028;-72
2023/07/10 09:32:15;;;;;;;4.32;0.60;;;23.60;99.90;;;;;;5053691;28;20037;-72
2023/07/10 09:34:48;;;;;;;4.97;0.70;;;23.50;99.90;;;;;;5050543;28;20116;-72
2023/07/10 09:37:22;;;;;;;4.22;0.88;;;23.60;99.90;;;;;;5070980;28;20035;-72
2023/07/10 09:40:43;;;;;;;4.55;0.90;;;23.70;99.90;;;;;;5057613;28;20025;-72
2023/07/10 09:43:22;;;;;;;7.63;0.90;;;23.60;99.90;;;;;;5056272;28;20033;-72
2023/07/10 09:45:50;;;;;;;6.90;1.27;;;23.70;99.90;;;;;;5012047;28;20040;-72
2023/07/10 09:48:26;;;;;;;4.65;0.55;;;23.90;99.90;;;;;;5051483;28;20021;-73
2023/07/10 09:50:53;;;;;;;6.82;0.85;;;24.10;99.90;;;;;;5048999;28;20505;-73
2023/07/10 09:53:27;;;;;;;7.65;0.70;;;24.10;99.90;;;;;;5047082;28;20037;-72
2023/07/10 09:55:53;;;;;;;4.00;0.50;;;23.90;99.80;;;;;;5033377;28;20073;-72
2023/07/10 09:58:18;;;;;;;7.72;0.80;;;23.80;99.80;;;;;;5005129;28;20461;-72
2023/07/10 10:00:45;;;;;;;8.25;1.08;;;23.80;99.60;;;;;;5029813;28;20025;-72
2023/07/10 10:03:19;;;;;;;3.67;0.50;;;23.90;99.90;;;;;;5033747;28;20028;-72
2023/07/10 10:05:52;;;;;;;4.47;0.82;;;24.00;99.90;;;;;;5036531;28;20032;-72
2023/07/10 10:08:47;;;;;;;3.63;0.60;;;24.30;99.90;;;;;;5022809;28;20021;-72
2023/07/10 10:11:13;;;;;;;5.32;0.60;;;24.50;99.50;;;;;;5013191;28;20120;-72
2023/07/10 10:13:44;;;;;;;4.70;0.70;;;24.60;99.00;;;;;;5030624;28;20483;-72
2023/07/10 10:16:27;;;;;;;6.38;0.47;;;24.50;98.90;;;;;;5031248;28;20064;-72
2023/07/10 10:19:04;;;;;;;6.90;0.60;;;24.60;98.10;;;;;;5032757;28;20474;-72
2023/07/10 10:21:34;;;;;;;3.65;0.60;;;24.70;97.90;;;;;;5029531;28;20037;-72
2023/07/10 10:24:05;;;;;;;7.25;0.65;;;24.60;97.20;;;;;;5030585;28;20061;-73
2023/07/10 10:26:39;;;;;;;4.47;0.57;;;24.70;96.50;;;;;;5030574;28;20038;-73
2023/07/10 10:29:40;;;;;;;5.13;0.60;;;24.80;96.60;;;;;;5012772;28;20649;-72
2023/07/10 10:32:30;;;;;;;4.07;0.70;;;24.90;95.70;;;;;;5037447;28;20493;-72
2023/07/10 10:35:27;;;;;;;7.43;1.45;;;24.80;95.70;;;;;;5047236;28;20040;-72
2023/07/10 10:38:05;;;;;;;6.10;0.68;;;24.80;96.00;;;;;;5021927;28;20028;-73
2023/07/10 10:40:41;;;;;;;3.20;0.55;;;24.90;96.20;;;;;;5032266;28;20029;-73
2023/07/10 10:43:19;;;;;;;3.63;0.57;;;25.20;95.60;;;;;;5032266;28;20471;-73
2023/07/10 10:46:18;;;;;;;5.78;0.75;;;25.50;94.90;;;;;;4995462;28;20061;-73
2023/07/10 10:48:58;;;;;;;3.42;0.50;;;25.60;94.30;;;;;;5012772;28;20030;-72
2023/07/10 10:51:50;;;;;;;3.70;0.40;;;25.60;93.60;;;;;;5026989;28;20071;-73
2023/07/10 10:54:34;;;;;;;5.22;0.88;;;25.80;92.40;;;;;;5022320;28;20043;-73
2023/07/10 10:57:25;;;;;;;4.93;0.85;;;25.90;92.30;;;;;;5066740;28;20048;-73
2023/07/10 11:00:11;;;;;;;9.95;0.90;;;25.80;92.40;;;;;;5033983;28;20494;-73
2023/07/10 11:03:00;;;;;;;6.45;0.75;;;25.60;92.50;;;;;;5052798;28;20033;-73
2023/07/10 11:06:12;;;;;;;7.30;0.90;;;25.40;92.70;;;;;;5051556;28;20033;-72
2023/07/10 11:08:45;;;;;;;4.07;0.70;;;25.30;92.80;;;;;;5069231;28;20378;-72
2023/07/10 11:11:30;;;;;;;5.32;0.77;;;25.30;93.00;;;;;;5054037;28;20074;-72
2023/07/10 11:13:57;;;;;;;5.63;0.68;;;25.50;92.40;;;;;;5048272;28;20032;-72
2023/07/10 11:16:27;;;;;;;4.22;0.50;;;25.40;91.70;;;;;;5051784;28;20398;-72
2023/07/10 11:18:53;;;;;;;5.30;0.40;;;25.20;92.10;;;;;;5051951;28;20032;-73
2023/07/10 11:21:21;;;;;;;6.30;0.47;;;25.10;92.40;;;;;;5055776;28;20044;-73
2023/07/10 11:23:50;;;;;;;5.20;0.50;;;25.20;92.40;;;;;;5062517;28;20035;-72
2023/07/10 11:26:29;;;;;;;3.80;0.60;;;25.20;92.10;;;;;;5017994;28;20128;-72
2023/07/10 11:28:57;;;;;;;4.65;0.63;;;25.10;92.40;;;;;;5033678;28;20028;-72
2023/07/10 11:31:40;;;;;;;5.38;0.90;;;25.00;92.40;;;;;;5051488;28;20052;-73
2023/07/10 11:34:31;;;;;;;5.05;0.52;;;24.80;92.70;;;;;;5047072;28;20026;-72
2023/07/10 11:36:58;;;;;;;5.30;0.47;;;24.60;92.60;;;;;;5013240;28;20113;-72
2023/07/10 11:39:35;;;;;;;6.68;0.70;;;24.40;92.50;;;;;;5023386;28;20104;-72
2023/07/10 11:42:17;;;;;;;6.88;0.50;;;24.40;92.50;;;;;;5056999;28;20024;-73
2023/07/10 11:44:52;;;;;;;4.90;0.50;;;24.50;92.30;;;;;;5051436;28;20032;-72
2023/07/10 11:47:22;;;;;;;5.82;0.50;;;24.60;92.40;;;;;;5062669;28;20036;-72
2023/07/10 11:49:59;;;;;;;4.55;0.63;;;24.90;92.50;;;;;;5071142;28;20066;-72
2023/07/10 11:52:28;;;;;;;3.83;0.50;;;25.10;92.00;;;;;;5071108;28;20020;-72
2023/07/10 11:54:57;;;;;;;3.83;0.45;;;25.30;91.90;;;;;;5044302;28;20033;-73
2023/07/10 11:57:32;;;;;;;4.22;0.70;;;25.40;91.30;;;;;;5051897;28;20185;-72
2023/07/10 12:00:16;;;;;;;3.97;0.40;;;25.70;90.60;;;;;;5047572;28;20025;-72
2023/07/10 12:02:45;;;;;;;3.60;0.40;;;25.90;90.30;;;;;;5050995;28;20124;-72
2023/07/10 12:05:23;;;;;;;3.30;0.43;;;26.00;89.70;;;;;;5048048;28;20065;-72
2023/07/10 12:08:14;;;;;;;4.50;0.47;;;26.20;89.40;;;;;;5046041;28;20069;-72
2023/07/10 12:10:50;;;;;;;3.10;0.57;;;26.30;87.70;;;;;;5050990;28;20029;-72
2023/07/10 12:13:23;;;;;;;4.60;0.50;;;26.30;86.30;;;;;;5032928;28;20398;-73
2023/07/10 12:15:51;;;;;;;3.28;0.40;;;26.20;84.80;;;;;;5049170;28;20037;-72
2023/07/10 12:18:33;;;;;;;3.35;0.40;;;26.20;85.20;;;;;;5071310;28;20418;-72
2023/07/10 12:21:01;;;;;;;3.42;0.77;;;26.30;83.90;;;;;;5070680;28;20489;-73
2023/07/10 12:23:26;;;;;;;3.97;0.40;;;26.40;85.00;;;;;;5069222;28;20048;-72
2023/07/10 12:25:55;;;;;;;4.93;0.63;;;26.40;84.60;;;;;;5055842;28;20021;-72
2023/07/10 12:28:23;;;;;;;3.97;0.40;;;26.40;84.90;;;;;;5050533;28;20067;-73
2023/07/10 12:30:51;;;;;;;4.93;0.50;;;26.50;84.90;;;;;;5044236;28;20064;-72
2023/07/10 12:33:56;;;;;;;3.03;0.40;;;26.50;84.70;;;;;;5032228;28;20029;-73
2023/07/10 12:36:28;;;;;;;4.65;0.40;;;26.60;83.40;;;;;;5049400;28;20080;-72
2023/07/10 12:38:59;;;;;;;4.65;0.60;;;26.70;82.80;;;;;;5050610;28;20021;-72
2023/07/10 12:41:31;;;;;;;5.68;0.55;;;26.50;81.90;;;;;;5027066;28;20036;-72
2023/07/10 12:43:57;;;;;;;4.75;0.50;;;26.50;83.40;;;;;;5054672;28;20035;-73
2023/07/10 12:46:29;;;;;;;4.93;0.50;;;26.60;83.50;;;;;;5070799;28;20094;-73
2023/07/10 12:49:15;;;;;;;4.18;0.40;;;26.90;82.70;;;;;;5051086;28;20025;-73
2023/07/10 12:51:45;;;;;;;3.05;0.90;;;27.00;81.70;;;;;;5050083;28;20044;-72
2023/07/10 12:54:21;;;;;;;3.83;0.60;;;26.70;81.30;;;;;;5051612;28;20037;-72
2023/07/10 12:56:47;;;;;;;5.18;0.50;;;26.60;81.20;;;;;;5051321;28;20061;-72
2023/07/10 12:59:13;;;;;;;5.75;0.45;;;26.50;81.90;;;;;;5070852;28;20428;-72
2023/07/10 13:01:46;;;;;;;4.50;0.60;;;26.50;81.20;;;;;;5057355;28;20116;-73